createdAt,value
2023-05-24T00:04:04.479Z,18.21
2023-05-24T00:08:23.860Z,18.19
2023-05-24T00:12:41.538Z,18.21
2023-05-24T00:17:00.026Z,18.18
2023-05-24T00:21:17.722Z,18.20
2023-05-24T00:25:35.718Z,18.22
2023-05-24T00:29:53.383Z,18.21
2023-05-24T00:34:11.434Z,18.15
2023-05-24T00:38:29.209Z,18.19
2023-05-24T00:42:47.294Z,18.14
2023-05-24T00:47:07.133Z,18.16
2023-05-24T00:51:28.239Z,18.13
2023-05-24T00:55:47.045Z,18.15
2023-05-24T01:00:06.423Z,18.16
2023-05-24T01:04:24.540Z,18.12
2023-05-24T01:08:57.081Z,18.17
2023-05-24T01:13:39.635Z,18.12
2023-05-24T01:18:08.142Z,18.11
2023-05-24T01:22:50.855Z,18.14
2023-05-24T01:27:12.552Z,18.13
2023-05-24T01:31:30.869Z,18.13
2023-05-24T01:35:48.457Z,18.10
2023-05-24T01:40:08.447Z,18.13
2023-05-24T01:44:40.524Z,18.13
2023-05-24T01:49:22.551Z,18.07
2023-05-24T01:53:47.060Z,18.12
2023-05-24T01:58:06.737Z,18.08
2023-05-24T02:02:25.124Z,18.11
2023-05-24T02:06:42.790Z,18.05
2023-05-24T02:11:00.491Z,18.08
2023-05-24T02:15:18.252Z,18.07
2023-05-24T02:19:37.205Z,18.15
2023-05-24T02:23:55.219Z,18.11
2023-05-24T02:28:13.290Z,18.10
2023-05-24T02:32:31.530Z,18.04
2023-05-24T02:36:50.476Z,18.05
2023-05-24T02:41:09.404Z,18.07
2023-05-24T02:45:26.946Z,18.07
2023-05-24T02:49:47.158Z,18.11
2023-05-24T02:54:04.768Z,18.16
2023-05-24T02:58:23.485Z,18.16
2023-05-24T03:02:41.506Z,18.11
2023-05-24T03:06:59.307Z,18.12
2023-05-24T03:11:16.991Z,18.10
2023-05-24T03:15:34.492Z,18.10
2023-05-24T03:19:54.016Z,18.13
2023-05-24T03:24:13.838Z,18.14
2023-05-24T03:28:31.512Z,18.16
2023-05-24T03:32:50.736Z,18.18
2023-05-24T03:37:08.439Z,18.17
2023-05-24T03:41:26.528Z,18.17
2023-05-24T03:45:45.106Z,18.18
2023-05-24T03:50:03.795Z,18.20
2023-05-24T03:54:25.102Z,18.23
2023-05-24T03:58:42.597Z,18.26
2023-05-24T04:03:03.444Z,18.26
2023-05-24T04:07:24.734Z,18.32
2023-05-24T04:11:43.594Z,18.25
2023-05-24T04:16:02.022Z,18.30
2023-05-24T04:20:20.138Z,18.33
2023-05-24T04:24:37.920Z,18.29
2023-05-24T04:28:57.340Z,18.35
2023-05-24T04:33:16.090Z,18.24
2023-05-24T04:37:33.812Z,18.29
2023-05-24T04:41:52.921Z,18.31
2023-05-24T04:46:11.328Z,18.36
2023-05-24T04:50:29.305Z,18.30
2023-05-24T04:54:46.935Z,18.30
2023-05-24T04:59:08.948Z,18.31
2023-05-24T05:03:26.751Z,18.31
2023-05-24T05:07:47.352Z,18.29
2023-05-24T05:12:05.167Z,18.42
2023-05-24T05:16:22.893Z,18.44
2023-05-24T05:20:41.208Z,18.38
2023-05-24T05:24:59.582Z,18.31
2023-05-24T05:29:17.685Z,18.39
2023-05-24T05:33:35.432Z,18.44
2023-05-24T05:37:54.507Z,18.30
2023-05-24T05:42:12.149Z,18.46
2023-05-24T05:46:30.396Z,18.48
2023-05-24T05:50:48.509Z,18.41
2023-05-24T05:55:07.104Z,18.40
2023-05-24T05:59:25.574Z,18.43
2023-05-24T06:03:43.780Z,18.44
2023-05-24T06:08:01.427Z,18.31
2023-05-24T06:12:21.141Z,18.36
2023-05-24T06:16:42.352Z,18.35
2023-05-24T06:21:00.374Z,18.42
2023-05-24T06:25:20.971Z,18.40
2023-05-24T06:29:39.643Z,18.50
2023-05-24T06:38:20.929Z,18.29
2023-05-24T06:42:39.506Z,18.23
2023-05-24T06:46:58.868Z,18.44
2023-05-24T06:51:17.572Z,18.37
2023-05-24T06:55:38.288Z,18.34
2023-05-24T06:59:56.995Z,18.25
2023-05-24T07:04:14.767Z,18.34
2023-05-24T07:08:32.481Z,18.34
2023-05-24T07:12:51.006Z,18.29
2023-05-24T07:17:09.736Z,18.26
2023-05-24T07:21:27.425Z,18.36
2023-05-24T07:25:46.844Z,18.34
2023-05-24T07:30:09.527Z,18.31
2023-05-24T07:34:34.869Z,18.33
2023-05-24T07:38:53.420Z,18.40
2023-05-24T07:43:11.451Z,18.43
2023-05-24T07:47:29.090Z,18.45
2023-05-24T07:51:50.836Z,18.46
2023-05-24T07:56:08.562Z,18.49
2023-05-24T08:00:27.024Z,18.48
2023-05-24T08:04:46.411Z,18.47
2023-05-24T08:09:05.137Z,18.52
2023-05-24T08:13:23.588Z,18.43
2023-05-24T08:17:41.995Z,18.46
2023-05-24T08:22:05.556Z,18.50
2023-05-24T08:26:24.587Z,18.46
2023-05-24T08:30:42.675Z,18.43
2023-05-24T08:35:14.887Z,18.40
2023-05-24T08:39:36.684Z,18.46
2023-05-24T08:43:57.863Z,18.43
2023-05-24T08:48:15.682Z,18.49
2023-05-24T08:52:34.072Z,18.41
2023-05-24T08:56:52.298Z,18.45
2023-05-24T09:01:13.787Z,18.48
2023-05-24T09:05:33.616Z,18.48
2023-05-24T09:10:02.061Z,18.51
2023-05-24T09:14:20.638Z,18.44
2023-05-24T09:18:43.883Z,18.47
2023-05-24T09:23:03.932Z,18.47
2023-05-24T09:27:22.439Z,18.53
2023-05-24T09:31:40.190Z,18.44
2023-05-24T09:36:04.949Z,18.46
2023-05-24T09:40:23.839Z,18.51
2023-05-24T09:44:41.434Z,18.44
2023-05-24T09:49:04.611Z,18.42
2023-05-24T09:53:23.062Z,18.50
2023-05-24T09:57:42.849Z,18.63
2023-05-24T10:02:12.726Z,18.58
2023-05-24T10:06:35.464Z,18.56
2023-05-24T10:10:54.129Z,18.55
2023-05-24T10:15:12.533Z,18.51
2023-05-24T10:19:30.160Z,18.55
2023-05-24T10:23:53.458Z,18.54
2023-05-24T10:28:14.685Z,18.63
2023-05-24T10:32:35.967Z,18.57
2023-05-24T10:36:54.502Z,18.65
2023-05-24T10:41:13.309Z,18.67
2023-05-24T10:45:33.695Z,18.68
2023-05-24T10:49:57.993Z,18.63
2023-05-24T10:54:18.622Z,18.58
2023-05-24T10:59:01.723Z,18.67
2023-05-24T11:03:24.820Z,18.72
2023-05-24T11:07:46.608Z,18.90
2023-05-24T11:12:09.508Z,18.80
2023-05-24T11:16:38.091Z,18.79
2023-05-24T11:21:01.058Z,18.77
2023-05-24T11:25:18.874Z,18.83
2023-05-24T11:29:53.877Z,18.64
2023-05-24T11:34:12.036Z,18.65
2023-05-24T11:38:30.594Z,18.66
2023-05-24T11:42:48.373Z,18.67
2023-05-24T11:47:08.753Z,18.86
2023-05-24T11:51:35.437Z,18.80
2023-05-24T11:55:56.319Z,18.74
2023-05-24T12:00:25.045Z,18.90
2023-05-24T12:04:43.868Z,18.76
2023-05-24T12:09:01.867Z,18.71
2023-05-24T12:13:26.198Z,18.79
2023-05-24T12:17:44.456Z,18.76
2023-05-24T12:22:07.834Z,18.76
2023-05-24T12:26:27.450Z,19.13
2023-05-24T12:30:45.974Z,19.00
2023-05-24T12:35:04.880Z,18.79
2023-05-24T12:39:32.032Z,18.61
2023-05-24T12:43:53.007Z,18.75
2023-05-24T12:48:12.342Z,18.76
2023-05-24T12:52:29.952Z,18.83
2023-05-24T12:56:48.856Z,18.80
2023-05-24T13:01:07.655Z,18.79
2023-05-24T13:05:27.766Z,18.88
2023-05-24T13:09:47.189Z,19.20
2023-05-24T13:14:05.637Z,19.06
2023-05-24T13:18:23.981Z,19.06
2023-05-24T13:22:42.498Z,19.11
2023-05-24T13:27:00.283Z,19.12
2023-05-24T13:31:18.538Z,18.82
2023-05-24T13:35:37.231Z,18.69
2023-05-24T13:39:55.396Z,18.70
2023-05-24T13:44:16.094Z,18.76
2023-05-24T13:48:33.858Z,18.90
2023-05-24T13:52:51.692Z,18.94
2023-05-24T13:57:09.417Z,18.85
2023-05-24T14:01:29.646Z,18.79
2023-05-24T14:05:48.140Z,18.93
2023-05-24T14:10:07.557Z,18.95
2023-05-24T14:18:47.229Z,18.60
2023-05-24T14:23:05.053Z,18.64
2023-05-24T14:27:23.612Z,18.76
2023-05-24T14:31:44.197Z,18.65
2023-05-24T14:36:02.309Z,18.67
2023-05-24T14:40:20.406Z,18.64
2023-05-24T14:44:37.720Z,18.63
2023-05-24T14:48:55.380Z,18.73
2023-05-24T14:53:13.242Z,18.63
2023-05-24T14:57:31.155Z,18.82
2023-05-24T15:01:50.342Z,18.90
2023-05-24T15:06:08.803Z,18.72
2023-05-24T15:10:27.453Z,18.68
2023-05-24T15:14:45.196Z,18.62
2023-05-24T15:19:03.361Z,18.65
2023-05-24T15:23:21.627Z,18.73
2023-05-24T15:27:39.944Z,18.58
2023-05-24T15:31:59.351Z,18.42
2023-05-24T15:36:18.007Z,18.42
2023-05-24T15:40:35.908Z,18.42
2023-05-24T15:44:54.330Z,18.30
2023-05-24T15:49:12.001Z,18.32
2023-05-24T15:53:29.765Z,18.23
2023-05-24T15:57:47.537Z,18.27
2023-05-24T16:02:09.343Z,18.29
2023-05-24T16:06:27.846Z,18.29
2023-05-24T16:10:45.848Z,18.25
2023-05-24T16:15:05.075Z,18.25
2023-05-24T16:19:23.055Z,18.22
2023-05-24T16:23:41.903Z,18.30
2023-05-24T16:28:00.650Z,18.24
2023-05-24T16:32:19.297Z,18.31
2023-05-24T16:36:37.159Z,18.24
2023-05-24T16:40:55.513Z,18.21
2023-05-24T16:45:13.707Z,18.22
2023-05-24T16:49:31.715Z,18.22
2023-05-24T16:53:50.607Z,18.22
2023-05-24T16:58:08.238Z,18.18
2023-05-24T17:02:28.278Z,18.22
2023-05-24T17:06:48.024Z,18.22
2023-05-24T17:11:06.885Z,18.13
2023-05-24T17:15:25.066Z,18.11
2023-05-24T17:19:42.925Z,18.08
2023-05-24T17:24:01.512Z,18.02
2023-05-24T17:28:20.184Z,18.09
2023-05-24T17:32:38.700Z,18.07
2023-05-24T17:36:56.743Z,18.08
2023-05-24T17:41:14.693Z,18.07
2023-05-24T17:45:34.366Z,18.02
2023-05-24T17:49:52.099Z,18.00
2023-05-24T17:54:10.339Z,18.01
2023-05-24T17:58:31.991Z,17.95
2023-05-24T18:02:50.426Z,17.96
2023-05-24T18:07:12.324Z,17.91
2023-05-24T18:11:30.249Z,17.95
2023-05-24T18:15:50.665Z,17.88
2023-05-24T18:20:08.955Z,17.92
2023-05-24T18:24:27.434Z,17.87
2023-05-24T18:28:45.298Z,17.87
2023-05-24T18:33:08.219Z,17.88
2023-05-24T18:37:28.291Z,17.81
2023-05-24T18:41:47.030Z,17.89
2023-05-24T18:46:05.271Z,17.85
2023-05-24T18:50:23.582Z,17.84
2023-05-24T18:54:42.988Z,17.84
2023-05-24T18:59:00.744Z,17.84
2023-05-24T19:03:20.181Z,17.78
2023-05-24T19:07:40.285Z,17.81
2023-05-24T19:12:00.192Z,17.86
2023-05-24T19:16:18.545Z,17.84
2023-05-24T19:20:37.388Z,17.79
2023-05-24T19:24:56.506Z,17.80
2023-05-24T19:29:14.432Z,17.78
2023-05-24T19:33:33.150Z,17.78
2023-05-24T19:37:53.748Z,17.80
2023-05-24T19:42:12.082Z,17.77
2023-05-24T19:46:30.484Z,17.79
2023-05-24T19:50:51.980Z,17.75
2023-05-24T19:55:11.490Z,17.78
2023-05-24T19:59:30.482Z,17.77
2023-05-24T20:03:49.011Z,17.76
2023-05-24T20:08:06.827Z,17.73
2023-05-24T20:12:25.309Z,17.70
2023-05-24T20:16:43.844Z,17.69
2023-05-24T20:21:02.936Z,17.71
2023-05-24T20:25:22.397Z,17.70
2023-05-24T20:29:40.019Z,17.68
2023-05-24T20:33:57.846Z,17.75
2023-05-24T20:38:15.325Z,17.68
2023-05-24T20:42:33.639Z,17.70
2023-05-24T20:46:51.473Z,17.70
2023-05-24T20:51:09.623Z,17.65
2023-05-24T20:55:28.174Z,17.69
2023-05-24T20:59:45.628Z,17.67
2023-05-24T21:04:04.299Z,17.67
2023-05-24T21:08:21.924Z,17.67
2023-05-24T21:12:39.541Z,17.64
2023-05-24T21:16:57.287Z,17.70
2023-05-24T21:21:14.820Z,17.67
2023-05-24T21:25:33.555Z,17.67
2023-05-24T21:29:51.475Z,17.65
2023-05-24T21:34:09.032Z,17.62
2023-05-24T21:38:26.824Z,17.66
2023-05-24T21:42:44.719Z,17.65
2023-05-24T21:47:04.689Z,17.65
2023-05-24T21:51:22.349Z,17.62
2023-05-24T21:55:39.863Z,17.55
2023-05-24T21:59:57.070Z,17.63
2023-05-24T22:04:15.253Z,17.65
2023-05-24T22:08:32.992Z,17.56
2023-05-24T22:12:52.684Z,17.67
2023-05-24T22:17:10.281Z,17.68
2023-05-24T22:21:33.633Z,17.62
2023-05-24T22:25:52.614Z,17.63
2023-05-24T22:30:11.941Z,17.62
2023-05-24T22:34:30.206Z,17.61
2023-05-24T22:38:47.768Z,17.63
2023-05-24T22:43:06.992Z,17.59
2023-05-24T22:47:24.759Z,17.61
2023-05-24T22:51:44.994Z,17.56
2023-05-24T22:56:02.553Z,17.66
2023-05-24T23:00:21.716Z,17.63
2023-05-24T23:04:40.180Z,17.58
2023-05-24T23:09:02.748Z,17.56
2023-05-24T23:13:21.565Z,17.65
2023-05-24T23:17:39.342Z,17.62
2023-05-24T23:21:57.690Z,17.56
2023-05-24T23:26:16.528Z,17.60
2023-05-24T23:30:34.045Z,17.57
2023-05-24T23:34:52.292Z,17.55
2023-05-24T23:39:12.753Z,17.57
2023-05-24T23:43:32.628Z,17.55
2023-05-24T23:47:50.817Z,17.55
2023-05-24T23:52:09.038Z,17.64
2023-05-24T23:56:26.787Z,17.57
